sensor_id;sensor_type;location;lat;lon;timestamp;temperature;humidity
913;DHT22;443;51.448;7.028;2023-03-04T00:01:07;11.90;60.00
913;DHT22;443;51.448;7.028;2023-03-04T00:03:33;11.90;61.00
913;DHT22;443;51.448;7.028;2023-03-04T00:06:01;11.90;60.20
913;DHT22;443;51.448;7.028;2023-03-04T00:08:28;11.80;60.20
913;DHT22;443;51.448;7.028;2023-03-04T00:10:55;11.80;60.60
913;DHT22;443;51.448;7.028;2023-03-04T00:13:23;11.80;59.70
913;DHT22;443;51.448;7.028;2023-03-04T00:15:50;11.80;60.40
913;DHT22;443;51.448;7.028;2023-03-04T00:18:16;11.80;59.80
913;DHT22;443;51.448;7.028;2023-03-04T00:20:45;11.80;59.60
913;DHT22;443;51.448;7.028;2023-03-04T00:23:14;11.80;59.70
913;DHT22;443;51.448;7.028;2023-03-04T00:25:41;11.80;60.10
913;DHT22;443;51.448;7.028;2023-03-04T00:28:07;11.80;61.10
913;DHT22;443;51.448;7.028;2023-03-04T00:30:35;11.80;60.00
913;DHT22;443;51.448;7.028;2023-03-04T00:33:02;11.70;60.50
913;DHT22;443;51.448;7.028;2023-03-04T00:35:29;11.70;60.80
913;DHT22;443;51.448;7.028;2023-03-04T00:37:56;11.70;60.40
913;DHT22;443;51.448;7.028;2023-03-04T00:40:22;11.70;61.10
913;DHT22;443;51.448;7.028;2023-03-04T00:42:49;11.70;59.90
913;DHT22;443;51.448;7.028;2023-03-04T00:45:16;11.60;59.90
913;DHT22;443;51.448;7.028;2023-03-04T00:47:44;11.70;60.20
913;DHT22;443;51.448;7.028;2023-03-04T00:50:11;11.70;60.60
913;DHT22;443;51.448;7.028;2023-03-04T00:52:38;11.60;60.10
913;DHT22;443;51.448;7.028;2023-03-04T00:55:06;11.60;59.80
913;DHT22;443;51.448;7.028;2023-03-04T00:57:33;11.70;60.80
913;DHT22;443;51.448;7.028;2023-03-04T01:00:00;11.80;61.00
913;DHT22;443;51.448;7.028;2023-03-04T01:02:26;11.70;60.80
913;DHT22;443;51.448;7.028;2023-03-04T01:04:55;11.70;60.30
913;DHT22;443;51.448;7.028;2023-03-04T01:07:21;11.80;61.40
913;DHT22;443;51.448;7.028;2023-03-04T01:09:48;11.80;60.40
913;DHT22;443;51.448;7.028;2023-03-04T01:12:15;11.70;60.10
913;DHT22;443;51.448;7.028;2023-03-04T01:14:42;11.70;60.40
913;DHT22;443;51.448;7.028;2023-03-04T01:17:08;11.70;60.40
913;DHT22;443;51.448;7.028;2023-03-04T01:19:36;11.80;61.00
913;DHT22;443;51.448;7.028;2023-03-04T01:22:04;11.70;61.10
913;DHT22;443;51.448;7.028;2023-03-04T01:24:31;11.80;60.70
913;DHT22;443;51.448;7.028;2023-03-04T01:26:58;11.70;60.20
913;DHT22;443;51.448;7.028;2023-03-04T01:29:24;11.70;61.10
913;DHT22;443;51.448;7.028;2023-03-04T01:31:51;11.70;60.50
913;DHT22;443;51.448;7.028;2023-03-04T01:34:18;11.70;60.20
913;DHT22;443;51.448;7.028;2023-03-04T01:36:45;11.70;60.40
913;DHT22;443;51.448;7.028;2023-03-04T01:39:13;11.70;60.80
913;DHT22;443;51.448;7.028;2023-03-04T01:41:39;11.60;60.90
913;DHT22;443;51.448;7.028;2023-03-04T01:44:08;11.60;60.40
913;DHT22;443;51.448;7.028;2023-03-04T01:46:36;11.60;60.40
913;DHT22;443;51.448;7.028;2023-03-04T01:49:04;11.60;61.20
913;DHT22;443;51.448;7.028;2023-03-04T01:51:31;11.60;60.70
913;DHT22;443;51.448;7.028;2023-03-04T01:53:58;11.70;60.80
913;DHT22;443;51.448;7.028;2023-03-04T01:56:28;11.70;60.80
913;DHT22;443;51.448;7.028;2023-03-04T01:59:10;11.70;60.50
913;DHT22;443;51.448;7.028;2023-03-04T02:01:38;11.60;60.20
913;DHT22;443;51.448;7.028;2023-03-04T02:04:05;11.70;60.30
913;DHT22;443;51.448;7.028;2023-03-04T02:06:33;11.70;60.70
913;DHT22;443;51.448;7.028;2023-03-04T02:09:00;11.60;60.20
913;DHT22;443;51.448;7.028;2023-03-04T02:11:29;11.70;61.40
913;DHT22;443;51.448;7.028;2023-03-04T02:13:56;11.80;62.20
913;DHT22;443;51.448;7.028;2023-03-04T02:16:23;11.70;60.50
913;DHT22;443;51.448;7.028;2023-03-04T02:18:49;11.60;60.10
913;DHT22;443;51.448;7.028;2023-03-04T02:21:20;11.60;60.40
913;DHT22;443;51.448;7.028;2023-03-04T02:23:55;11.60;61.10
913;DHT22;443;51.448;7.028;2023-03-04T02:26:25;11.70;61.00
913;DHT22;443;51.448;7.028;2023-03-04T02:28:55;11.70;61.50
913;DHT22;443;51.448;7.028;2023-03-04T02:31:25;11.60;60.60
913;DHT22;443;51.448;7.028;2023-03-04T02:33:55;11.70;61.60
913;DHT22;443;51.448;7.028;2023-03-04T02:36:22;11.60;61.10
913;DHT22;443;51.448;7.028;2023-03-04T02:38:51;11.60;60.90
913;DHT22;443;51.448;7.028;2023-03-04T02:41:20;11.60;60.70
913;DHT22;443;51.448;7.028;2023-03-04T02:43:51;11.60;61.00
913;DHT22;443;51.448;7.028;2023-03-04T02:46:18;11.60;61.00
913;DHT22;443;51.448;7.028;2023-03-04T02:48:45;11.50;60.40
913;DHT22;443;51.448;7.028;2023-03-04T02:51:11;11.60;61.00
913;DHT22;443;51.448;7.028;2023-03-04T02:53:38;11.60;61.60
913;DHT22;443;51.448;7.028;2023-03-04T02:56:06;11.60;61.40
913;DHT22;443;51.448;7.028;2023-03-04T02:58:32;11.60;60.90
913;DHT22;443;51.448;7.028;2023-03-04T03:01:01;11.60;61.30
913;DHT22;443;51.448;7.028;2023-03-04T03:03:28;11.60;60.90
913;DHT22;443;51.448;7.028;2023-03-04T03:05:54;11.60;61.60
913;DHT22;443;51.448;7.028;2023-03-04T03:08:21;11.60;61.60
913;DHT22;443;51.448;7.028;2023-03-04T03:10:48;11.50;60.80
913;DHT22;443;51.448;7.028;2023-03-04T03:13:15;11.60;61.90
913;DHT22;443;51.448;7.028;2023-03-04T03:15:42;11.60;60.80
913;DHT22;443;51.448;7.028;2023-03-04T03:18:10;11.70;62.00
913;DHT22;443;51.448;7.028;2023-03-04T03:20:37;11.70;61.50
913;DHT22;443;51.448;7.028;2023-03-04T03:23:04;11.70;61.10
913;DHT22;443;51.448;7.028;2023-03-04T03:25:31;11.60;60.60
913;DHT22;443;51.448;7.028;2023-03-04T03:27:58;11.70;61.40
913;DHT22;443;51.448;7.028;2023-03-04T03:30:25;11.60;61.70
913;DHT22;443;51.448;7.028;2023-03-04T03:32:51;11.70;60.80
913;DHT22;443;51.448;7.028;2023-03-04T03:35:20;11.70;61.80
913;DHT22;443;51.448;7.028;2023-03-04T03:37:46;11.60;61.30
913;DHT22;443;51.448;7.028;2023-03-04T03:40:14;11.60;61.60
913;DHT22;443;51.448;7.028;2023-03-04T03:42:41;11.60;61.80
913;DHT22;443;51.448;7.028;2023-03-04T03:45:09;11.60;61.10
913;DHT22;443;51.448;7.028;2023-03-04T03:47:35;11.50;60.00
913;DHT22;443;51.448;7.028;2023-03-04T03:50:03;11.50;61.30
913;DHT22;443;51.448;7.028;2023-03-04T03:52:31;11.60;61.00
913;DHT22;443;51.448;7.028;2023-03-04T03:54:58;11.60;62.10
913;DHT22;443;51.448;7.028;2023-03-04T03:57:26;11.60;60.50
913;DHT22;443;51.448;7.028;2023-03-04T03:59:53;11.60;61.00
913;DHT22;443;51.448;7.028;2023-03-04T04:02:20;11.60;62.00
913;DHT22;443;51.448;7.028;2023-03-04T04:04:48;11.60;60.40
913;DHT22;443;51.448;7.028;2023-03-04T04:07:14;11.50;61.60
913;DHT22;443;51.448;7.028;2023-03-04T04:09:43;11.60;61.70
913;DHT22;443;51.448;7.028;2023-03-04T04:12:12;11.60;61.60
913;DHT22;443;51.448;7.028;2023-03-04T04:14:39;11.60;61.20
913;DHT22;443;51.448;7.028;2023-03-04T04:17:06;11.60;62.60
913;DHT22;443;51.448;7.028;2023-03-04T04:19:32;11.60;61.60
913;DHT22;443;51.448;7.028;2023-03-04T04:21:59;11.60;62.10
913;DHT22;443;51.448;7.028;2023-03-04T04:24:26;11.70;62.00
913;DHT22;443;51.448;7.028;2023-03-04T04:26:54;11.50;60.80
913;DHT22;443;51.448;7.028;2023-03-04T04:29:21;11.50;60.60
913;DHT22;443;51.448;7.028;2023-03-04T04:31:48;11.50;61.40
913;DHT22;443;51.448;7.028;2023-03-04T04:34:15;11.50;60.70
913;DHT22;443;51.448;7.028;2023-03-04T04:36:42;11.50;61.10
913;DHT22;443;51.448;7.028;2023-03-04T04:39:08;11.40;61.20
913;DHT22;443;51.448;7.028;2023-03-04T04:41:39;11.50;61.60
913;DHT22;443;51.448;7.028;2023-03-04T04:44:08;11.40;61.00
913;DHT22;443;51.448;7.028;2023-03-04T04:46:35;11.40;60.80
913;DHT22;443;51.448;7.028;2023-03-04T04:49:03;11.50;63.60
913;DHT22;443;51.448;7.028;2023-03-04T04:51:30;11.50;61.30
913;DHT22;443;51.448;7.028;2023-03-04T04:53:57;11.40;61.00
913;DHT22;443;51.448;7.028;2023-03-04T04:56:25;11.40;61.00
913;DHT22;443;51.448;7.028;2023-03-04T04:58:52;11.50;62.70
913;DHT22;443;51.448;7.028;2023-03-04T05:01:21;11.40;60.80
913;DHT22;443;51.448;7.028;2023-03-04T05:03:48;11.40;61.50
913;DHT22;443;51.448;7.028;2023-03-04T05:06:18;11.40;61.30
913;DHT22;443;51.448;7.028;2023-03-04T05:08:45;11.50;61.80
913;DHT22;443;51.448;7.028;2023-03-04T05:11:12;11.40;62.40
913;DHT22;443;51.448;7.028;2023-03-04T05:13:39;11.40;61.40
913;DHT22;443;51.448;7.028;2023-03-04T05:16:06;11.40;61.40
913;DHT22;443;51.448;7.028;2023-03-04T05:18:35;11.40;61.90
913;DHT22;443;51.448;7.028;2023-03-04T05:21:03;11.40;60.60
913;DHT22;443;51.448;7.028;2023-03-04T05:23:32;11.40;62.50
913;DHT22;443;51.448;7.028;2023-03-04T05:25:59;11.40;61.60
913;DHT22;443;51.448;7.028;2023-03-04T05:28:27;11.30;60.90
913;DHT22;443;51.448;7.028;2023-03-04T05:30:54;11.30;61.80
913;DHT22;443;51.448;7.028;2023-03-04T05:33:21;11.30;62.50
913;DHT22;443;51.448;7.028;2023-03-04T05:35:49;11.30;61.50
913;DHT22;443;51.448;7.028;2023-03-04T05:38:18;11.30;61.10
913;DHT22;443;51.448;7.028;2023-03-04T05:40:45;11.40;61.30
913;DHT22;443;51.448;7.028;2023-03-04T05:43:13;11.40;61.60
913;DHT22;443;51.448;7.028;2023-03-04T05:45:40;11.40;61.40
913;DHT22;443;51.448;7.028;2023-03-04T05:48:08;11.40;61.50
913;DHT22;443;51.448;7.028;2023-03-04T05:50:35;11.40;61.20
913;DHT22;443;51.448;7.028;2023-03-04T05:53:03;11.40;61.10
913;DHT22;443;51.448;7.028;2023-03-04T05:55:30;11.40;62.70
913;DHT22;443;51.448;7.028;2023-03-04T05:57:57;11.30;62.20
913;DHT22;443;51.448;7.028;2023-03-04T06:00:24;11.40;61.20
913;DHT22;443;51.448;7.028;2023-03-04T06:02:51;11.30;61.10
913;DHT22;443;51.448;7.028;2023-03-04T06:05:19;11.30;61.30
913;DHT22;443;51.448;7.028;2023-03-04T06:07:46;11.40;62.40
913;DHT22;443;51.448;7.028;2023-03-04T06:10:15;11.40;61.90
913;DHT22;443;51.448;7.028;2023-03-04T06:12:42;11.40;61.50
913;DHT22;443;51.448;7.028;2023-03-04T06:15:10;11.40;61.70
913;DHT22;443;51.448;7.028;2023-03-04T06:17:38;11.40;61.30
913;DHT22;443;51.448;7.028;2023-03-04T06:20:05;11.50;61.70
913;DHT22;443;51.448;7.028;2023-03-04T06:22:33;11.50;61.20
913;DHT22;443;51.448;7.028;2023-03-04T06:25:00;11.60;61.90
913;DHT22;443;51.448;7.028;2023-03-04T06:27:28;11.60;61.10
913;DHT22;443;51.448;7.028;2023-03-04T06:29:55;11.60;61.70
913;DHT22;443;51.448;7.028;2023-03-04T06:32:22;11.50;61.90
913;DHT22;443;51.448;7.028;2023-03-04T06:34:48;11.50;61.20
913;DHT22;443;51.448;7.028;2023-03-04T06:37:15;11.60;61.90
913;DHT22;443;51.448;7.028;2023-03-04T06:39:43;11.60;61.20
913;DHT22;443;51.448;7.028;2023-03-04T06:42:11;11.60;60.70
913;DHT22;443;51.448;7.028;2023-03-04T06:44:39;11.60;61.30
913;DHT22;443;51.448;7.028;2023-03-04T06:47:06;11.60;61.40
913;DHT22;443;51.448;7.028;2023-03-04T06:49:33;11.60;61.00
913;DHT22;443;51.448;7.028;2023-03-04T06:51:59;11.70;62.00
913;DHT22;443;51.448;7.028;2023-03-04T06:54:26;11.50;61.40
913;DHT22;443;51.448;7.028;2023-03-04T06:56:53;11.50;62.10
913;DHT22;443;51.448;7.028;2023-03-04T06:59:20;11.60;61.90
913;DHT22;443;51.448;7.028;2023-03-04T07:01:48;11.60;62.00
913;DHT22;443;51.448;7.028;2023-03-04T07:04:15;11.60;61.60
913;DHT22;443;51.448;7.028;2023-03-04T07:06:42;11.60;61.20
913;DHT22;443;51.448;7.028;2023-03-04T07:09:08;11.70;61.70
913;DHT22;443;51.448;7.028;2023-03-04T07:11:35;11.60;62.20
913;DHT22;443;51.448;7.028;2023-03-04T07:14:02;11.50;61.40
913;DHT22;443;51.448;7.028;2023-03-04T07:16:29;11.60;61.70
913;DHT22;443;51.448;7.028;2023-03-04T07:18:57;11.50;62.00
913;DHT22;443;51.448;7.028;2023-03-04T07:21:24;11.60;62.30
913;DHT22;443;51.448;7.028;2023-03-04T07:23:50;11.50;61.80
913;DHT22;443;51.448;7.028;2023-03-04T07:26:18;11.60;63.00
913;DHT22;443;51.448;7.028;2023-03-04T07:28:46;11.50;62.30
913;DHT22;443;51.448;7.028;2023-03-04T07:31:19;11.60;62.90
913;DHT22;443;51.448;7.028;2023-03-04T07:33:46;11.60;62.00
913;DHT22;443;51.448;7.028;2023-03-04T07:36:14;11.60;62.60
913;DHT22;443;51.448;7.028;2023-03-04T07:38:42;11.60;62.20
913;DHT22;443;51.448;7.028;2023-03-04T07:41:09;11.60;61.90
913;DHT22;443;51.448;7.028;2023-03-04T07:43:36;11.60;61.80
913;DHT22;443;51.448;7.028;2023-03-04T07:46:03;11.50;61.90
913;DHT22;443;51.448;7.028;2023-03-04T07:48:30;11.50;62.10
913;DHT22;443;51.448;7.028;2023-03-04T07:51:05;11.50;62.30
913;DHT22;443;51.448;7.028;2023-03-04T07:53:33;11.50;62.10
913;DHT22;443;51.448;7.028;2023-03-04T07:56:00;11.60;63.00
913;DHT22;443;51.448;7.028;2023-03-04T07:58:27;11.50;62.20
913;DHT22;443;51.448;7.028;2023-03-04T08:00:54;11.50;62.50
913;DHT22;443;51.448;7.028;2023-03-04T08:03:21;11.50;62.70
913;DHT22;443;51.448;7.028;2023-03-04T08:05:47;11.60;62.50
913;DHT22;443;51.448;7.028;2023-03-04T08:08:14;11.60;62.90
913;DHT22;443;51.448;7.028;2023-03-04T08:10:42;11.60;62.60
913;DHT22;443;51.448;7.028;2023-03-04T08:13:09;11.60;62.30
913;DHT22;443;51.448;7.028;2023-03-04T08:15:39;11.60;62.60
913;DHT22;443;51.448;7.028;2023-03-04T08:18:06;11.60;62.80
913;DHT22;443;51.448;7.028;2023-03-04T08:20:33;11.60;63.00
913;DHT22;443;51.448;7.028;2023-03-04T08:22:59;11.70;63.10
913;DHT22;443;51.448;7.028;2023-03-04T08:25:26;11.60;62.70
913;DHT22;443;51.448;7.028;2023-03-04T08:27:55;11.70;63.10
913;DHT22;443;51.448;7.028;2023-03-04T08:30:21;11.80;63.30
913;DHT22;443;51.448;7.028;2023-03-04T08:32:48;11.80;63.00
913;DHT22;443;51.448;7.028;2023-03-04T08:35:15;11.80;62.50
913;DHT22;443;51.448;7.028;2023-03-04T08:37:42;11.80;63.30
913;DHT22;443;51.448;7.028;2023-03-04T08:40:11;11.90;63.80
913;DHT22;443;51.448;7.028;2023-03-04T08:42:38;12.00;62.60
913;DHT22;443;51.448;7.028;2023-03-04T08:45:08;11.90;62.20
913;DHT22;443;51.448;7.028;2023-03-04T08:47:35;11.80;62.40
913;DHT22;443;51.448;7.028;2023-03-04T08:50:03;11.80;63.10
913;DHT22;443;51.448;7.028;2023-03-04T08:52:30;11.70;63.20
913;DHT22;443;51.448;7.028;2023-03-04T08:54:57;11.80;63.70
913;DHT22;443;51.448;7.028;2023-03-04T08:57:24;11.90;63.70
913;DHT22;443;51.448;7.028;2023-03-04T08:59:51;11.80;64.40
913;DHT22;443;51.448;7.028;2023-03-04T09:02:19;11.90;65.20
913;DHT22;443;51.448;7.028;2023-03-04T09:04:46;11.90;64.80
913;DHT22;443;51.448;7.028;2023-03-04T09:07:12;11.90;65.10
913;DHT22;443;51.448;7.028;2023-03-04T09:09:39;11.90;65.10
913;DHT22;443;51.448;7.028;2023-03-04T09:12:06;12.00;64.90
913;DHT22;443;51.448;7.028;2023-03-04T09:14:34;11.90;64.20
913;DHT22;443;51.448;7.028;2023-03-04T09:17:01;12.00;64.80
913;DHT22;443;51.448;7.028;2023-03-04T09:19:29;12.10;65.40
913;DHT22;443;51.448;7.028;2023-03-04T09:21:56;11.90;65.30
913;DHT22;443;51.448;7.028;2023-03-04T09:24:23;11.90;65.90
913;DHT22;443;51.448;7.028;2023-03-04T09:26:51;11.90;65.90
913;DHT22;443;51.448;7.028;2023-03-04T09:29:18;11.90;66.30
913;DHT22;443;51.448;7.028;2023-03-04T09:31:44;11.90;65.90
913;DHT22;443;51.448;7.028;2023-03-04T09:34:11;11.80;65.60
913;DHT22;443;51.448;7.028;2023-03-04T09:36:39;11.90;65.80
913;DHT22;443;51.448;7.028;2023-03-04T09:39:06;11.90;65.80
913;DHT22;443;51.448;7.028;2023-03-04T09:41:36;11.90;65.70
913;DHT22;443;51.448;7.028;2023-03-04T09:44:10;12.00;66.00
913;DHT22;443;51.448;7.028;2023-03-04T09:46:40;11.90;65.70
913;DHT22;443;51.448;7.028;2023-03-04T09:49:10;11.90;65.70
913;DHT22;443;51.448;7.028;2023-03-04T09:51:47;11.90;65.80
913;DHT22;443;51.448;7.028;2023-03-04T09:54:26;11.90;65.90
913;DHT22;443;51.448;7.028;2023-03-04T09:57:00;11.90;65.80
913;DHT22;443;51.448;7.028;2023-03-04T09:59:37;11.90;65.90
913;DHT22;443;51.448;7.028;2023-03-04T10:02:16;12.00;65.70
913;DHT22;443;51.448;7.028;2023-03-04T10:04:47;11.90;65.70
913;DHT22;443;51.448;7.028;2023-03-04T10:07:19;12.00;65.70
913;DHT22;443;51.448;7.028;2023-03-04T10:09:48;11.90;65.50
913;DHT22;443;51.448;7.028;2023-03-04T10:12:20;11.90;66.30
913;DHT22;443;51.448;7.028;2023-03-04T10:14:50;12.00;65.30
913;DHT22;443;51.448;7.028;2023-03-04T10:17:21;12.00;65.30
913;DHT22;443;51.448;7.028;2023-03-04T10:19:56;12.00;65.60
913;DHT22;443;51.448;7.028;2023-03-04T10:22:31;12.00;65.30
913;DHT22;443;51.448;7.028;2023-03-04T10:25:01;12.00;65.10
913;DHT22;443;51.448;7.028;2023-03-04T10:27:31;12.00;66.40
913;DHT22;443;51.448;7.028;2023-03-04T10:29:59;12.00;65.30
913;DHT22;443;51.448;7.028;2023-03-04T10:32:26;12.00;65.10
913;DHT22;443;51.448;7.028;2023-03-04T10:34:53;12.00;65.50
913;DHT22;443;51.448;7.028;2023-03-04T10:37:20;12.00;65.10
913;DHT22;443;51.448;7.028;2023-03-04T10:39:49;12.00;65.00
913;DHT22;443;51.448;7.028;2023-03-04T10:42:26;12.10;65.10
913;DHT22;443;51.448;7.028;2023-03-04T10:44:55;12.10;64.70
913;DHT22;443;51.448;7.028;2023-03-04T10:47:23;12.10;65.50
913;DHT22;443;51.448;7.028;2023-03-04T10:49:54;12.00;64.80
913;DHT22;443;51.448;7.028;2023-03-04T10:52:31;12.10;65.10
913;DHT22;443;51.448;7.028;2023-03-04T10:55:04;12.20;65.10
913;DHT22;443;51.448;7.028;2023-03-04T10:57:34;12.20;65.90
913;DHT22;443;51.448;7.028;2023-03-04T11:00:22;12.20;65.20
913;DHT22;443;51.448;7.028;2023-03-04T11:02:50;12.20;65.70
913;DHT22;443;51.448;7.028;2023-03-04T11:05:18;12.20;64.70
913;DHT22;443;51.448;7.028;2023-03-04T11:07:48;12.10;65.60
913;DHT22;443;51.448;7.028;2023-03-04T11:10:20;12.20;65.40
913;DHT22;443;51.448;7.028;2023-03-04T11:12:49;12.20;64.90
913;DHT22;443;51.448;7.028;2023-03-04T11:15:18;12.20;64.80
913;DHT22;443;51.448;7.028;2023-03-04T11:17:51;12.20;64.60
913;DHT22;443;51.448;7.028;2023-03-04T11:20:27;12.30;65.00
913;DHT22;443;51.448;7.028;2023-03-04T11:22:56;12.40;65.00
913;DHT22;443;51.448;7.028;2023-03-04T11:25:28;12.40;64.20
913;DHT22;443;51.448;7.028;2023-03-04T11:28:00;12.40;64.20
913;DHT22;443;51.448;7.028;2023-03-04T11:30:34;12.30;65.10
913;DHT22;443;51.448;7.028;2023-03-04T11:33:10;12.30;64.70
913;DHT22;443;51.448;7.028;2023-03-04T11:35:44;12.40;65.20
913;DHT22;443;51.448;7.028;2023-03-04T11:38:17;12.40;65.30
913;DHT22;443;51.448;7.028;2023-03-04T11:40:49;12.40;64.90
913;DHT22;443;51.448;7.028;2023-03-04T11:43:19;12.30;64.40
913;DHT22;443;51.448;7.028;2023-03-04T11:46:13;12.30;64.50
913;DHT22;443;51.448;7.028;2023-03-04T11:48:48;12.30;64.40
913;DHT22;443;51.448;7.028;2023-03-04T11:51:21;12.20;64.00
913;DHT22;443;51.448;7.028;2023-03-04T11:54:07;12.20;64.60
913;DHT22;443;51.448;7.028;2023-03-04T11:56:42;12.20;64.70
913;DHT22;443;51.448;7.028;2023-03-04T11:59:23;12.30;65.70
913;DHT22;443;51.448;7.028;2023-03-04T12:01:58;12.20;65.10
913;DHT22;443;51.448;7.028;2023-03-04T12:04:50;12.20;65.00
913;DHT22;443;51.448;7.028;2023-03-04T12:07:42;12.40;65.60
913;DHT22;443;51.448;7.028;2023-03-04T12:10:21;12.40;65.40
913;DHT22;443;51.448;7.028;2023-03-04T12:13:06;12.50;65.40
913;DHT22;443;51.448;7.028;2023-03-04T12:15:39;12.30;64.30
913;DHT22;443;51.448;7.028;2023-03-04T12:18:25;12.30;64.50
913;DHT22;443;51.448;7.028;2023-03-04T12:21:02;12.20;65.00
913;DHT22;443;51.448;7.028;2023-03-04T12:26:33;12.30;65.10
913;DHT22;443;51.448;7.028;2023-03-04T12:29:06;12.20;64.90
913;DHT22;443;51.448;7.028;2023-03-04T12:31:39;12.30;65.20
913;DHT22;443;51.448;7.028;2023-03-04T12:37:19;12.30;64.60
913;DHT22;443;51.448;7.028;2023-03-04T12:40:00;12.40;64.70
913;DHT22;443;51.448;7.028;2023-03-04T12:42:38;12.30;64.90
913;DHT22;443;51.448;7.028;2023-03-04T12:45:16;12.30;65.00
913;DHT22;443;51.448;7.028;2023-03-04T12:47:57;12.30;65.80
913;DHT22;443;51.448;7.028;2023-03-04T12:50:30;12.30;65.50
913;DHT22;443;51.448;7.028;2023-03-04T12:53:09;12.30;65.60
913;DHT22;443;51.448;7.028;2023-03-04T12:55:39;12.20;66.00
913;DHT22;443;51.448;7.028;2023-03-04T12:58:14;12.20;66.50
913;DHT22;443;51.448;7.028;2023-03-04T13:00:51;12.10;66.70
913;DHT22;443;51.448;7.028;2023-03-04T13:03:24;12.20;67.20
913;DHT22;443;51.448;7.028;2023-03-04T13:06:04;12.20;67.30
913;DHT22;443;51.448;7.028;2023-03-04T13:08:39;12.20;67.50
913;DHT22;443;51.448;7.028;2023-03-04T13:11:44;12.20;67.40
913;DHT22;443;51.448;7.028;2023-03-04T13:14:27;12.10;67.10
913;DHT22;443;51.448;7.028;2023-03-04T13:16:58;12.10;67.40
913;DHT22;443;51.448;7.028;2023-03-04T13:19:48;12.10;67.50
913;DHT22;443;51.448;7.028;2023-03-04T13:22:26;12.10;67.20
913;DHT22;443;51.448;7.028;2023-03-04T13:24:54;12.20;67.40
913;DHT22;443;51.448;7.028;2023-03-04T13:27:45;12.30;67.40
913;DHT22;443;51.448;7.028;2023-03-04T13:30:42;12.20;67.30
913;DHT22;443;51.448;7.028;2023-03-04T13:33:58;12.20;67.20
913;DHT22;443;51.448;7.028;2023-03-04T13:39:27;12.10;66.90
913;DHT22;443;51.448;7.028;2023-03-04T13:41:54;12.10;66.90
913;DHT22;443;51.448;7.028;2023-03-04T13:47:16;12.20;66.80
913;DHT22;443;51.448;7.028;2023-03-04T13:49:45;12.30;67.00
913;DHT22;443;51.448;7.028;2023-03-04T13:52:39;12.30;66.50
913;DHT22;443;51.448;7.028;2023-03-04T13:55:30;12.20;66.60
913;DHT22;443;51.448;7.028;2023-03-04T13:57:57;12.30;66.90
913;DHT22;443;51.448;7.028;2023-03-04T14:00:24;12.20;66.80
913;DHT22;443;51.448;7.028;2023-03-04T14:02:52;12.30;66.70
913;DHT22;443;51.448;7.028;2023-03-04T14:05:21;12.30;66.90
913;DHT22;443;51.448;7.028;2023-03-04T14:07:48;12.30;66.80
913;DHT22;443;51.448;7.028;2023-03-04T14:10:22;12.30;66.70
913;DHT22;443;51.448;7.028;2023-03-04T14:12:52;12.30;66.70
913;DHT22;443;51.448;7.028;2023-03-04T14:15:22;12.20;66.50
913;DHT22;443;51.448;7.028;2023-03-04T14:17:51;12.30;66.50
913;DHT22;443;51.448;7.028;2023-03-04T14:20:25;12.30;66.40
913;DHT22;443;51.448;7.028;2023-03-04T14:22:52;12.30;66.20
913;DHT22;443;51.448;7.028;2023-03-04T14:25:22;12.30;66.10
913;DHT22;443;51.448;7.028;2023-03-04T14:27:50;12.40;65.90
913;DHT22;443;51.448;7.028;2023-03-04T14:30:28;12.40;66.10
913;DHT22;443;51.448;7.028;2023-03-04T14:32:57;12.40;66.30
913;DHT22;443;51.448;7.028;2023-03-04T14:35:27;12.30;66.00
913;DHT22;443;51.448;7.028;2023-03-04T14:37:58;12.20;65.80
913;DHT22;443;51.448;7.028;2023-03-04T14:40:28;12.20;66.10
913;DHT22;443;51.448;7.028;2023-03-04T14:42:59;12.10;66.00
913;DHT22;443;51.448;7.028;2023-03-04T14:45:28;12.20;66.80
913;DHT22;443;51.448;7.028;2023-03-04T14:47:58;12.30;67.00
913;DHT22;443;51.448;7.028;2023-03-04T14:50:28;12.30;65.80
913;DHT22;443;51.448;7.028;2023-03-04T14:53:13;12.40;66.50
913;DHT22;443;51.448;7.028;2023-03-04T14:55:55;12.20;66.00
913;DHT22;443;51.448;7.028;2023-03-04T14:58:24;12.30;67.10
913;DHT22;443;51.448;7.028;2023-03-04T15:01:06;12.30;66.10
913;DHT22;443;51.448;7.028;2023-03-04T15:03:33;12.30;65.70
913;DHT22;443;51.448;7.028;2023-03-04T15:06:15;12.30;66.20
913;DHT22;443;51.448;7.028;2023-03-04T15:08:43;12.30;65.70
913;DHT22;443;51.448;7.028;2023-03-04T15:11:20;12.40;66.20
913;DHT22;443;51.448;7.028;2023-03-04T15:13:49;12.40;65.90
913;DHT22;443;51.448;7.028;2023-03-04T15:16:18;12.40;65.70
913;DHT22;443;51.448;7.028;2023-03-04T15:18:55;12.40;65.70
913;DHT22;443;51.448;7.028;2023-03-04T15:21:33;12.40;65.80
913;DHT22;443;51.448;7.028;2023-03-04T15:24:01;12.40;65.10
913;DHT22;443;51.448;7.028;2023-03-04T15:26:30;12.40;65.40
913;DHT22;443;51.448;7.028;2023-03-04T15:28:56;12.40;64.50
913;DHT22;443;51.448;7.028;2023-03-04T15:31:24;12.40;64.60
913;DHT22;443;51.448;7.028;2023-03-04T15:33:51;12.40;64.30
913;DHT22;443;51.448;7.028;2023-03-04T15:36:20;12.30;64.20
913;DHT22;443;51.448;7.028;2023-03-04T15:38:50;12.30;64.10
913;DHT22;443;51.448;7.028;2023-03-04T15:41:21;12.30;64.70
913;DHT22;443;51.448;7.028;2023-03-04T15:43:48;12.40;64.50
913;DHT22;443;51.448;7.028;2023-03-04T15:46:15;12.50;65.00
913;DHT22;443;51.448;7.028;2023-03-04T15:48:42;12.40;64.00
913;DHT22;443;51.448;7.028;2023-03-04T15:51:13;12.30;64.20
913;DHT22;443;51.448;7.028;2023-03-04T15:53:42;12.40;64.70
913;DHT22;443;51.448;7.028;2023-03-04T15:56:14;12.30;64.20
913;DHT22;443;51.448;7.028;2023-03-04T15:58:43;12.40;64.70
913;DHT22;443;51.448;7.028;2023-03-04T16:01:14;12.30;64.00
913;DHT22;443;51.448;7.028;2023-03-04T16:03:41;12.40;65.30
913;DHT22;443;51.448;7.028;2023-03-04T16:06:09;12.40;64.70
913;DHT22;443;51.448;7.028;2023-03-04T16:08:37;12.50;64.70
913;DHT22;443;51.448;7.028;2023-03-04T16:11:05;12.40;64.20
913;DHT22;443;51.448;7.028;2023-03-04T16:13:33;12.40;64.30
913;DHT22;443;51.448;7.028;2023-03-04T16:16:00;12.40;64.50
913;DHT22;443;51.448;7.028;2023-03-04T16:18:27;12.40;63.40
913;DHT22;443;51.448;7.028;2023-03-04T16:20:53;12.50;64.10
913;DHT22;443;51.448;7.028;2023-03-04T16:23:22;12.50;62.30
913;DHT22;443;51.448;7.028;2023-03-04T16:25:51;12.50;61.60
913;DHT22;443;51.448;7.028;2023-03-04T16:28:19;12.50;62.60
913;DHT22;443;51.448;7.028;2023-03-04T16:30:47;12.40;62.40
913;DHT22;443;51.448;7.028;2023-03-04T16:33:14;12.40;62.80
913;DHT22;443;51.448;7.028;2023-03-04T16:35:43;12.40;62.90
913;DHT22;443;51.448;7.028;2023-03-04T16:38:20;12.50;63.00
913;DHT22;443;51.448;7.028;2023-03-04T16:40:47;12.40;61.80
913;DHT22;443;51.448;7.028;2023-03-04T16:43:14;12.30;61.60
913;DHT22;443;51.448;7.028;2023-03-04T16:45:41;12.40;62.20
913;DHT22;443;51.448;7.028;2023-03-04T16:48:10;12.40;62.70
913;DHT22;443;51.448;7.028;2023-03-04T16:50:37;12.30;62.00
913;DHT22;443;51.448;7.028;2023-03-04T16:53:05;12.40;61.90
913;DHT22;443;51.448;7.028;2023-03-04T16:55:41;12.40;60.50
913;DHT22;443;51.448;7.028;2023-03-04T16:58:08;12.40;60.50
913;DHT22;443;51.448;7.028;2023-03-04T17:00:35;12.40;61.80
913;DHT22;443;51.448;7.028;2023-03-04T17:03:02;12.40;61.50